Time;durP1;ratioP1;P1;durP2;ratioP2;P2;SDS_P1;SDS_P2;PMS_P1;PMS_P2;Temp;Humidity;BMP_temperature;BMP_pressure;BME280_temperature;BME280_humidity;BME280_pressure;Samples;Min_cycle;Max_cycle;Signal;HPM_P1;HPM_P2
2021/08/23 00:02:15;;;;;;;0.20;0.20;;;17.00;99.90;;;;;;5068253;28;20240;-80
2021/08/23 00:04:40;;;;;;;0.20;0.20;;;17.00;99.90;;;;;;5072424;28;20341;-82
2021/08/23 00:07:06;;;;;;;0.10;0.10;;;16.90;99.90;;;;;;5064961;28;20713;-81
2021/08/23 00:09:32;;;;;;;0.20;0.20;;;16.90;99.90;;;;;;5063560;28;20185;-81
2021/08/23 00:11:59;;;;;;;1.00;0.20;;;16.80;99.90;;;;;;5070519;28;20949;-82
2021/08/23 00:14:25;;;;;;;0.30;0.30;;;16.80;99.90;;;;;;5075151;28;20188;-82
2021/08/23 00:16:50;;;;;;;0.30;0.20;;;16.70;99.90;;;;;;5074498;28;20263;-82
2021/08/23 00:19:16;;;;;;;0.70;0.37;;;16.60;99.90;;;;;;5068222;28;20183;-82
2021/08/23 00:21:43;;;;;;;0.17;0.17;;;16.70;99.90;;;;;;5077506;28;20204;-82
2021/08/23 00:24:21;;;;;;;0.10;0.10;;;16.50;99.90;;;;;;5072934;28;20206;-81
2021/08/23 00:26:56;;;;;;;0.10;0.10;;;16.20;99.90;;;;;;5075019;28;20254;-81
2021/08/23 00:29:23;;;;;;;0.23;0.23;;;16.10;99.90;;;;;;5068294;28;20271;-82
2021/08/23 00:31:49;;;;;;;0.30;0.30;;;16.20;99.90;;;;;;5075212;28;20204;-82
2021/08/23 00:34:15;;;;;;;0.20;0.20;;;16.40;99.90;;;;;;5064162;28;20193;-82
2021/08/23 00:36:41;;;;;;;0.43;0.43;;;16.50;99.90;;;;;;5071548;28;20227;-82
2021/08/23 00:39:08;;;;;;;0.13;0.13;;;16.60;99.90;;;;;;5057165;28;20192;-82
2021/08/23 00:41:35;;;;;;;0.10;0.10;;;16.60;99.90;;;;;;5069607;28;20262;-82
2021/08/23 00:44:02;;;;;;;0.10;0.10;;;16.60;99.90;;;;;;5069418;28;20272;-81
2021/08/23 00:46:28;;;;;;;0.20;0.20;;;16.60;99.90;;;;;;5068079;28;20184;-82
2021/08/23 00:48:53;;;;;;;0.20;0.20;;;16.70;99.90;;;;;;5062602;28;20224;-83
2021/08/23 00:51:20;;;;;;;0.20;0.20;;;16.60;99.90;;;;;;5070933;28;20212;-80
2021/08/23 00:53:47;;;;;;;0.30;0.30;;;16.60;99.90;;;;;;5072138;28;20549;-82
2021/08/23 00:56:13;;;;;;;0.50;0.40;;;16.60;99.90;;;;;;5069250;28;20667;-82
2021/08/23 00:58:40;;;;;;;0.20;0.20;;;16.50;99.90;;;;;;5070941;28;20200;-82
2021/08/23 01:01:44;;;;;;;0.40;0.40;;;16.50;99.90;;;;;;5072277;28;20299;-80
2021/08/23 01:04:35;;;;;;;0.10;0.10;;;16.50;99.90;;;;;;5082160;28;20818;-82
2021/08/23 01:07:03;;;;;;;0.10;0.10;;;16.50;99.90;;;;;;5068083;28;20231;-82
2021/08/23 01:09:33;;;;;;;0.37;0.37;;;16.50;99.90;;;;;;5072736;28;20656;-82
2021/08/23 01:12:01;;;;;;;0.27;0.27;;;16.50;99.90;;;;;;5068675;28;20172;-82
2021/08/23 01:14:26;;;;;;;0.30;0.30;;;16.40;99.90;;;;;;5070873;28;20192;-82
2021/08/23 01:16:52;;;;;;;0.30;0.30;;;16.40;99.90;;;;;;5074349;28;20616;-82
2021/08/23 01:19:19;;;;;;;0.30;0.30;;;16.40;99.90;;;;;;5067424;28;20177;-81
2021/08/23 01:21:45;;;;;;;0.20;0.20;;;16.50;99.90;;;;;;5072133;28;20232;-82
2021/08/23 01:24:11;;;;;;;0.53;0.20;;;16.40;99.90;;;;;;5071323;28;20203;-82
2021/08/23 01:26:41;;;;;;;0.20;0.20;;;16.50;99.90;;;;;;5063191;28;20675;-82
2021/08/23 01:29:35;;;;;;;0.10;0.10;;;16.40;99.90;;;;;;5065377;28;20223;-82
2021/08/23 01:32:19;;;;;;;0.10;0.10;;;16.40;99.90;;;;;;5074336;28;20183;-82
2021/08/23 01:34:48;;;;;;;0.77;0.30;;;15.90;99.90;;;;;;5067489;28;20194;-82
2021/08/23 01:37:15;;;;;;;0.10;0.10;;;15.60;99.90;;;;;;5073185;28;20192;-82
2021/08/23 01:39:41;;;;;;;0.20;0.20;;;15.40;99.90;;;;;;5070930;28;20188;-82
2021/08/23 01:42:07;;;;;;;0.20;0.20;;;15.50;99.90;;;;;;5072930;28;20202;-82
2021/08/23 01:44:33;;;;;;;0.33;0.33;;;15.50;99.90;;;;;;5072839;28;20729;-82
2021/08/23 01:46:59;;;;;;;0.30;0.30;;;15.40;99.90;;;;;;5065133;28;20207;-81
2021/08/23 01:49:24;;;;;;;0.33;0.20;;;15.40;99.90;;;;;;5072574;28;20196;-81
2021/08/23 01:51:56;;;;;;;0.20;0.20;;;15.30;99.90;;;;;;5071968;28;20253;-82
2021/08/23 01:54:22;;;;;;;0.30;0.30;;;15.40;99.90;;;;;;5100846;28;20192;-82
2021/08/23 01:56:48;;;;;;;0.10;0.10;;;15.50;99.90;;;;;;5072814;28;20624;-82
2021/08/23 01:59:14;;;;;;;0.10;0.10;;;15.70;99.90;;;;;;5070880;28;20548;-82
2021/08/23 02:01:39;;;;;;;0.53;0.53;;;15.70;99.90;;;;;;5071376;28;20204;-82
2021/08/23 02:04:05;;;;;;;0.13;0.13;;;15.90;99.90;;;;;;5073417;28;20197;-82
2021/08/23 02:06:31;;;;;;;0.30;0.30;;;15.90;99.90;;;;;;5071723;28;20279;-81
2021/08/23 02:08:57;;;;;;;0.20;0.20;;;15.60;99.90;;;;;;5070843;28;20245;-82
2021/08/23 02:11:25;;;;;;;0.27;0.27;;;15.40;99.90;;;;;;5059476;28;20210;-82
2021/08/23 02:13:52;;;;;;;0.50;0.20;;;15.30;99.90;;;;;;5072654;28;20392;-81
2021/08/23 02:16:18;;;;;;;1.50;0.33;;;15.20;99.90;;;;;;5059951;28;20192;-82
2021/08/23 02:18:43;;;;;;;0.30;0.27;;;15.30;99.90;;;;;;5072426;28;20196;-82
2021/08/23 02:21:09;;;;;;;0.20;0.20;;;15.40;99.90;;;;;;5072464;28;20215;-81
2021/08/23 02:23:35;;;;;;;0.20;0.20;;;15.50;99.90;;;;;;5071002;28;20218;-82
2021/08/23 02:26:01;;;;;;;0.20;0.20;;;15.60;99.90;;;;;;5072085;28;20271;-82
2021/08/23 02:28:26;;;;;;;0.27;0.20;;;15.70;99.90;;;;;;5072142;28;20216;-82
2021/08/23 02:30:52;;;;;;;0.13;0.13;;;15.40;99.90;;;;;;5068700;28;20292;-82
2021/08/23 02:33:18;;;;;;;0.40;0.27;;;15.30;99.90;;;;;;5069454;28;20194;-82
2021/08/23 02:35:45;;;;;;;0.50;0.23;;;15.20;99.90;;;;;;5065042;28;20190;-80
2021/08/23 02:38:10;;;;;;;0.20;0.20;;;15.10;99.90;;;;;;5072221;28;20252;-82
2021/08/23 02:40:36;;;;;;;0.20;0.20;;;15.10;99.90;;;;;;5067528;28;20215;-82
2021/08/23 02:43:02;;;;;;;0.10;0.10;;;15.20;99.90;;;;;;5064571;28;20193;-80
2021/08/23 02:45:27;;;;;;;0.20;0.17;;;15.20;99.90;;;;;;5062336;28;20191;-82
2021/08/23 02:47:53;;;;;;;0.10;0.10;;;15.30;99.90;;;;;;5065936;28;20207;-82
2021/08/23 02:50:19;;;;;;;0.57;0.10;;;15.40;99.90;;;;;;5072998;28;20214;-82
2021/08/23 02:52:44;;;;;;;0.10;0.10;;;15.60;99.90;;;;;;5067584;28;20198;-82
2021/08/23 02:55:10;;;;;;;0.20;0.20;;;15.80;99.90;;;;;;5054089;28;20184;-81
2021/08/23 02:57:36;;;;;;;0.20;0.20;;;16.00;99.90;;;;;;5062977;28;20199;-82
2021/08/23 03:00:03;;;;;;;0.40;0.40;;;16.10;99.90;;;;;;5067663;28;20217;-82
2021/08/23 03:02:28;;;;;;;0.07;0.07;;;16.10;99.90;;;;;;5072132;28;20196;-82
2021/08/23 03:04:54;;;;;;;0.10;0.10;;;16.20;99.90;;;;;;5072391;28;20269;-82
2021/08/23 03:07:19;;;;;;;0.20;0.20;;;16.10;99.90;;;;;;5080670;28;20204;-82
2021/08/23 03:09:45;;;;;;;0.40;0.40;;;16.20;99.90;;;;;;5069563;28;20184;-82
2021/08/23 03:12:10;;;;;;;0.30;0.30;;;15.90;99.90;;;;;;5071964;28;20197;-81
2021/08/23 03:14:36;;;;;;;0.30;0.30;;;15.50;99.90;;;;;;5072237;28;20188;-82
2021/08/23 03:17:02;;;;;;;0.10;0.10;;;15.30;99.90;;;;;;5063581;28;20603;-82
2021/08/23 03:19:27;;;;;;;0.37;0.37;;;15.30;99.90;;;;;;5071741;28;20263;-82
2021/08/23 03:21:53;;;;;;;0.40;0.37;;;15.50;99.90;;;;;;5071935;28;20184;-80
2021/08/23 03:24:18;;;;;;;0.40;0.30;;;15.60;99.90;;;;;;5054736;28;20690;-82
2021/08/23 03:26:44;;;;;;;0.33;0.27;;;15.60;99.90;;;;;;5071219;28;20555;-82
2021/08/23 03:29:12;;;;;;;0.20;0.20;;;15.60;99.90;;;;;;5062929;28;20235;-81
2021/08/23 03:31:41;;;;;;;0.40;0.40;;;15.70;99.90;;;;;;5067567;28;20226;-82
2021/08/23 03:34:12;;;;;;;0.30;0.30;;;15.70;99.90;;;;;;5071068;28;20176;-84
2021/08/23 03:36:39;;;;;;;1.47;0.93;;;15.50;99.90;;;;;;5064276;28;20180;-82
2021/08/23 03:39:04;;;;;;;0.20;0.20;;;15.40;99.90;;;;;;5056453;28;20192;-83
2021/08/23 03:41:30;;;;;;;0.10;0.10;;;15.60;99.90;;;;;;5076659;28;20298;-83
2021/08/23 03:43:55;;;;;;;0.20;0.20;;;15.90;99.90;;;;;;5059619;28;20187;-81
2021/08/23 03:46:21;;;;;;;0.30;0.30;;;15.70;99.90;;;;;;5068541;28;20216;-82
2021/08/23 03:48:46;;;;;;;0.20;0.20;;;15.60;99.90;;;;;;5061315;28;20208;-83
2021/08/23 03:51:12;;;;;;;0.57;0.57;;;15.60;99.90;;;;;;5069295;28;20218;-83
2021/08/23 03:53:38;;;;;;;0.17;0.17;;;15.80;99.90;;;;;;5065696;28;20212;-81
2021/08/23 03:56:03;;;;;;;0.37;0.37;;;15.80;99.90;;;;;;5061770;28;20189;-83
2021/08/23 03:58:29;;;;;;;0.23;0.23;;;15.90;99.90;;;;;;5064990;28;20188;-82
2021/08/23 04:00:58;;;;;;;0.20;0.20;;;16.10;99.90;;;;;;5057050;28;20580;-83
2021/08/23 04:03:23;;;;;;;0.40;0.30;;;16.00;99.90;;;;;;5068069;28;20191;-82
2021/08/23 04:05:49;;;;;;;0.20;0.20;;;16.00;99.90;;;;;;5066166;28;20181;-83
2021/08/23 04:08:14;;;;;;;0.17;0.17;;;16.00;99.90;;;;;;5063931;28;20687;-83
2021/08/23 04:10:40;;;;;;;0.20;0.20;;;16.00;99.90;;;;;;5060058;28;20240;-83
2021/08/23 04:13:05;;;;;;;0.30;0.30;;;16.10;99.90;;;;;;5068733;28;20529;-83
2021/08/23 04:15:31;;;;;;;0.47;0.30;;;16.20;99.90;;;;;;5059003;28;20241;-81
2021/08/23 04:17:59;;;;;;;0.20;0.20;;;16.40;99.90;;;;;;5068612;28;20204;-82
2021/08/23 04:20:24;;;;;;;0.27;0.27;;;16.30;99.90;;;;;;5065487;28;20215;-81
2021/08/23 04:22:50;;;;;;;0.10;0.10;;;16.40;99.90;;;;;;5067973;28;20592;-83
2021/08/23 04:25:15;;;;;;;0.10;0.10;;;16.50;99.90;;;;;;5067028;28;20204;-83
2021/08/23 04:27:41;;;;;;;0.10;0.10;;;16.50;99.90;;;;;;5064011;28;20597;-83
2021/08/23 04:30:07;;;;;;;0.53;0.33;;;16.60;99.90;;;;;;5059955;28;20352;-81
2021/08/23 04:32:32;;;;;;;0.20;0.20;;;16.60;99.90;;;;;;5067280;28;20174;-83
2021/08/23 04:34:58;;;;;;;0.33;0.33;;;16.60;99.90;;;;;;5067750;28;20177;-83
2021/08/23 04:37:24;;;;;;;0.10;0.10;;;16.30;99.90;;;;;;5064875;28;20192;-83
2021/08/23 04:39:49;;;;;;;0.30;0.30;;;16.10;99.90;;;;;;5058652;28;20208;-82
2021/08/23 04:42:15;;;;;;;0.27;0.27;;;15.70;99.90;;;;;;5058522;28;20212;-83
2021/08/23 04:44:46;;;;;;;0.20;0.20;;;15.60;99.90;;;;;;5070487;28;20237;-83
2021/08/23 04:47:12;;;;;;;0.83;0.47;;;15.70;99.90;;;;;;5063146;28;20223;-85
2021/08/23 04:49:38;;;;;;;0.20;0.20;;;15.80;99.90;;;;;;5065798;28;20267;-85
2021/08/23 04:52:03;;;;;;;0.43;0.20;;;15.80;99.90;;;;;;5063575;28;20198;-83
2021/08/23 04:54:29;;;;;;;0.10;0.10;;;16.00;99.90;;;;;;5065227;28;20184;-82
2021/08/23 04:56:55;;;;;;;0.30;0.30;;;16.00;99.90;;;;;;5069887;28;20656;-80
2021/08/23 04:59:20;;;;;;;0.20;0.20;;;15.90;99.90;;;;;;5071454;28;20262;-82
2021/08/23 05:01:46;;;;;;;0.63;0.63;;;15.90;99.90;;;;;;5070813;28;20203;-81
2021/08/23 05:04:11;;;;;;;0.23;0.23;;;15.80;99.90;;;;;;5064433;28;20196;-83
2021/08/23 05:06:37;;;;;;;0.20;0.10;;;15.70;99.90;;;;;;5071639;28;20291;-84
2021/08/23 05:09:02;;;;;;;0.40;0.40;;;15.90;99.90;;;;;;5066094;28;20268;-84
2021/08/23 05:11:29;;;;;;;0.30;0.30;;;15.90;99.90;;;;;;5073001;28;20216;-85
2021/08/23 05:13:55;;;;;;;0.73;0.70;;;15.90;99.90;;;;;;5061934;28;20265;-82
2021/08/23 05:16:20;;;;;;;0.20;0.20;;;15.80;99.90;;;;;;5068452;28;20208;-82
2021/08/23 05:18:46;;;;;;;0.83;0.50;;;15.70;99.90;;;;;;5065019;28;20714;-82
2021/08/23 05:21:12;;;;;;;0.43;0.40;;;15.70;99.90;;;;;;5064042;28;20212;-81
2021/08/23 05:23:37;;;;;;;0.37;0.37;;;15.70;99.90;;;;;;5058835;28;20204;-83
2021/08/23 05:26:09;;;;;;;0.30;0.30;;;15.90;99.90;;;;;;5061260;28;20294;-82
2021/08/23 05:28:34;;;;;;;0.20;0.20;;;15.90;99.90;;;;;;5062146;28;20219;-83
2021/08/23 05:31:00;;;;;;;0.27;0.27;;;16.10;99.90;;;;;;5068401;28;20700;-82
2021/08/23 05:33:26;;;;;;;0.40;0.40;;;16.40;99.90;;;;;;5061537;28;20196;-83
2021/08/23 05:35:51;;;;;;;0.13;0.13;;;16.70;99.90;;;;;;5067006;28;20192;-83
2021/08/23 05:38:17;;;;;;;0.30;0.30;;;17.00;99.90;;;;;;5058971;28;20189;-84
2021/08/23 05:40:42;;;;;;;0.23;0.23;;;17.20;99.90;;;;;;5070355;28;20212;-83
2021/08/23 05:43:09;;;;;;;0.20;0.20;;;17.10;99.90;;;;;;5062250;28;20188;-83
2021/08/23 05:45:35;;;;;;;0.10;0.10;;;17.20;99.90;;;;;;5064623;28;20189;-83
2021/08/23 05:48:00;;;;;;;0.60;0.60;;;17.40;99.90;;;;;;5066377;28;20703;-82
2021/08/23 05:50:26;;;;;;;0.43;0.43;;;17.60;99.90;;;;;;5061574;28;20211;-83
2021/08/23 05:52:51;;;;;;;0.30;0.30;;;17.80;99.90;;;;;;5065380;28;20195;-85
2021/08/23 05:55:17;;;;;;;0.20;0.20;;;17.90;99.90;;;;;;5069401;28;20181;-83
2021/08/23 05:57:42;;;;;;;0.30;0.30;;;18.10;99.90;;;;;;5062111;28;20649;-82
2021/08/23 06:00:10;;;;;;;0.37;0.37;;;18.00;99.90;;;;;;5067554;28;20722;-83
2021/08/23 06:02:35;;;;;;;0.20;0.20;;;18.10;99.90;;;;;;5063047;28;20227;-83
2021/08/23 06:05:02;;;;;;;1.13;0.53;;;18.10;99.90;;;;;;5060255;28;20197;-82
2021/08/23 06:07:28;;;;;;;0.20;0.20;;;18.10;99.90;;;;;;5063314;28;20216;-83
2021/08/23 06:09:53;;;;;;;1.20;0.67;;;18.20;99.90;;;;;;5062478;28;20208;-83
2021/08/23 06:12:19;;;;;;;0.30;0.30;;;18.30;99.90;;;;;;5065657;28;20188;-82
2021/08/23 06:14:44;;;;;;;0.87;0.23;;;18.20;99.90;;;;;;5063441;28;20193;-84
2021/08/23 06:17:10;;;;;;;0.23;0.23;;;18.30;99.90;;;;;;5063249;28;20199;-84
2021/08/23 06:19:36;;;;;;;0.20;0.20;;;18.20;99.90;;;;;;5067373;28;20182;-81
2021/08/23 06:22:02;;;;;;;0.63;0.27;;;18.30;99.90;;;;;;5061914;28;20200;-83
2021/08/23 06:24:28;;;;;;;0.30;0.17;;;18.50;99.90;;;;;;5061448;28;20189;-83
2021/08/23 06:26:53;;;;;;;0.33;0.33;;;18.70;99.90;;;;;;5059786;28;20889;-81
2021/08/23 06:29:19;;;;;;;0.23;0.23;;;18.80;99.90;;;;;;5060050;28;20610;-83
2021/08/23 06:31:44;;;;;;;0.40;0.40;;;18.90;99.90;;;;;;5069027;28;20688;-83
2021/08/23 06:34:10;;;;;;;0.50;0.50;;;18.90;99.90;;;;;;5060111;28;20192;-82
2021/08/23 06:36:36;;;;;;;0.47;0.47;;;19.00;99.90;;;;;;5058556;28;20256;-83
2021/08/23 06:39:03;;;;;;;0.20;0.20;;;19.00;99.90;;;;;;5070272;28;20188;-81
2021/08/23 06:41:28;;;;;;;0.40;0.40;;;19.20;99.90;;;;;;5070854;28;20204;-83
2021/08/23 06:43:55;;;;;;;0.20;0.20;;;19.20;99.90;;;;;;5058126;28;20707;-85
2021/08/23 06:46:20;;;;;;;0.30;0.30;;;19.30;99.90;;;;;;5053936;28;20182;-85
2021/08/23 06:48:46;;;;;;;0.33;0.33;;;19.20;99.90;;;;;;5059376;28;20608;-82
2021/08/23 06:51:12;;;;;;;0.30;0.30;;;19.20;99.90;;;;;;5064665;28;20200;-81
2021/08/23 06:53:38;;;;;;;5.07;1.70;;;19.30;99.90;;;;;;5061776;28;20177;-82
2021/08/23 06:56:04;;;;;;;0.30;0.30;;;19.20;99.90;;;;;;5060980;28;20189;-83
2021/08/23 06:58:30;;;;;;;0.30;0.30;;;19.40;99.90;;;;;;5061118;28;20239;-82
2021/08/23 07:00:55;;;;;;;0.43;0.33;;;19.60;99.90;;;;;;5056902;28;20213;-82
2021/08/23 07:03:21;;;;;;;0.30;0.30;;;19.70;99.90;;;;;;5058300;28;20193;-85
2021/08/23 07:05:46;;;;;;;0.27;0.27;;;19.70;99.90;;;;;;5054427;28;20710;-85
2021/08/23 07:08:13;;;;;;;0.20;0.20;;;19.90;99.90;;;;;;5059494;28;20217;-81
2021/08/23 07:10:39;;;;;;;1.03;0.40;;;20.00;99.90;;;;;;5064018;28;20866;-82
2021/08/23 07:13:04;;;;;;;0.60;0.60;;;20.00;99.90;;;;;;5071202;28;20254;-82
2021/08/23 07:15:30;;;;;;;0.30;0.30;;;20.30;99.90;;;;;;5058676;28;20188;-83
2021/08/23 07:17:55;;;;;;;1.03;0.20;;;20.50;99.90;;;;;;5071437;28;20192;-82
2021/08/23 07:20:21;;;;;;;0.20;0.20;;;20.80;99.90;;;;;;5061750;28;20239;-82
2021/08/23 07:22:47;;;;;;;0.30;0.30;;;20.90;99.90;;;;;;5066996;28;20212;-82
2021/08/23 07:25:12;;;;;;;0.20;0.20;;;21.00;99.90;;;;;;5066305;28;20662;-82
2021/08/23 07:27:38;;;;;;;0.50;0.50;;;21.20;99.90;;;;;;5070115;28;20664;-82
2021/08/23 07:30:04;;;;;;;0.20;0.20;;;21.30;99.90;;;;;;5067023;28;20222;-82
2021/08/23 07:32:30;;;;;;;1.03;0.37;;;21.30;99.90;;;;;;5071680;28;20200;-82
2021/08/23 07:34:55;;;;;;;0.60;0.30;;;21.50;99.90;;;;;;5070447;28;20177;-82
2021/08/23 07:37:21;;;;;;;0.40;0.40;;;21.70;99.90;;;;;;5064300;28;20199;-82
2021/08/23 07:39:47;;;;;;;0.30;0.30;;;21.80;99.90;;;;;;5071255;28;20189;-83
2021/08/23 07:42:13;;;;;;;0.40;0.40;;;22.00;99.90;;;;;;5079650;28;20177;-83
2021/08/23 07:44:39;;;;;;;0.27;0.27;;;22.10;99.90;;;;;;5070304;28;20185;-82
2021/08/23 07:47:05;;;;;;;0.97;0.77;;;22.20;99.90;;;;;;5067754;28;20187;-83
2021/08/23 07:49:31;;;;;;;0.30;0.30;;;22.20;99.90;;;;;;5079175;28;20200;-82
2021/08/23 07:51:57;;;;;;;0.47;0.40;;;22.30;99.90;;;;;;5071967;28;20181;-82
2021/08/23 07:54:23;;;;;;;0.20;0.20;;;22.40;99.90;;;;;;5070615;28;20184;-82
2021/08/23 07:56:48;;;;;;;0.37;0.37;;;22.30;99.90;;;;;;5071186;28;20188;-82
2021/08/23 07:59:14;;;;;;;0.40;0.40;;;22.10;99.90;;;;;;5071319;28;20551;-82
2021/08/23 08:01:40;;;;;;;0.60;0.60;;;22.50;99.90;;;;;;5071331;28;20616;-82
2021/08/23 08:04:05;;;;;;;0.30;0.30;;;22.50;99.90;;;;;;5070344;28;20193;-83
2021/08/23 08:06:31;;;;;;;0.30;0.30;;;22.80;99.90;;;;;;5068902;28;20196;-82
2021/08/23 08:08:56;;;;;;;0.90;0.67;;;22.70;99.90;;;;;;5064880;28;20218;-83
2021/08/23 08:11:22;;;;;;;0.63;0.63;;;22.40;99.90;;;;;;5063464;28;20205;-83
2021/08/23 08:13:48;;;;;;;0.50;0.50;;;22.20;99.90;;;;;;5063818;28;20663;-83
2021/08/23 08:16:13;;;;;;;0.67;0.40;;;22.10;99.90;;;;;;5070123;28;20196;-83
2021/08/23 08:18:39;;;;;;;0.30;0.30;;;22.50;99.90;;;;;;5064934;28;20198;-81
2021/08/23 08:21:04;;;;;;;0.30;0.30;;;22.50;99.90;;;;;;5065338;28;20651;-82
2021/08/23 08:23:30;;;;;;;0.90;0.60;;;22.80;99.90;;;;;;5060379;28;20659;-81
2021/08/23 08:25:56;;;;;;;0.23;0.23;;;22.80;99.90;;;;;;5068201;28;20580;-82
2021/08/23 08:28:22;;;;;;;0.53;0.53;;;22.90;99.90;;;;;;5058060;28;20225;-80
2021/08/23 08:30:47;;;;;;;0.40;0.40;;;22.20;99.90;;;;;;5065921;28;20350;-83
2021/08/23 08:33:15;;;;;;;1.10;0.43;;;22.40;99.90;;;;;;5075939;28;20184;-82
2021/08/23 08:35:40;;;;;;;0.93;0.60;;;23.30;99.90;;;;;;5071166;28;20187;-83
2021/08/23 08:38:06;;;;;;;0.20;0.20;;;23.90;99.90;;;;;;5070445;28;20192;-81
2021/08/23 08:40:32;;;;;;;1.03;0.57;;;24.10;99.90;;;;;;5072659;28;20220;-82
2021/08/23 08:42:58;;;;;;;0.80;0.60;;;24.30;99.90;;;;;;5073966;28;20603;-83
2021/08/23 08:45:26;;;;;;;0.70;0.50;;;24.70;99.90;;;;;;5067139;28;20268;-84
2021/08/23 08:47:55;;;;;;;0.80;0.80;;;23.50;99.90;;;;;;5071460;28;20212;-83
2021/08/23 08:50:22;;;;;;;1.40;1.27;;;22.90;99.90;;;;;;5106912;27;20197;-83
2021/08/23 08:52:48;;;;;;;0.57;0.53;;;22.40;99.90;;;;;;5066773;28;20209;-84
2021/08/23 08:55:14;;;;;;;0.70;0.70;;;22.50;99.90;;;;;;5070146;28;20630;-83
2021/08/23 08:57:40;;;;;;;0.40;0.40;;;23.10;99.90;;;;;;5073009;28;20212;-83
2021/08/23 09:00:07;;;;;;;0.60;0.60;;;23.40;99.90;;;;;;5068161;28;20236;-83
2021/08/23 09:02:33;;;;;;;0.60;0.53;;;23.80;99.90;;;;;;5061685;28;20186;-82
2021/08/23 09:05:02;;;;;;;0.50;0.50;;;23.90;99.90;;;;;;5065703;28;20199;-82
2021/08/23 09:07:39;;;;;;;1.83;0.67;;;23.80;99.90;;;;;;5072592;28;20274;-83
2021/08/23 09:10:25;;;;;;;0.70;0.70;;;23.50;99.90;;;;;;5067772;28;20217;-83
2021/08/23 09:13:01;;;;;;;0.50;0.50;;;23.90;99.90;;;;;;5062145;28;20281;-83
2021/08/23 09:15:27;;;;;;;0.70;0.70;;;24.10;99.90;;;;;;5080258;28;20192;-83
2021/08/23 09:18:04;;;;;;;1.13;0.63;;;23.70;99.90;;;;;;5059525;28;20181;-83
2021/08/23 09:20:30;;;;;;;0.37;0.37;;;24.60;99.90;;;;;;5054666;28;20688;-83
2021/08/23 09:23:13;;;;;;;1.20;0.60;;;24.30;99.90;;;;;;5061304;28;20185;-82
2021/08/23 09:25:41;;;;;;;1.57;0.70;;;23.90;99.90;;;;;;5062838;28;20241;-83
2021/08/23 09:28:09;;;;;;;0.43;0.43;;;24.00;99.90;;;;;;5062737;28;20204;-83
2021/08/23 09:30:35;;;;;;;0.83;0.70;;;23.00;99.90;;;;;;5067821;28;20252;-83
2021/08/23 09:33:04;;;;;;;1.30;0.70;;;22.50;99.90;;;;;;5061584;28;20201;-82
2021/08/23 09:35:29;;;;;;;0.60;0.60;;;22.60;99.90;;;;;;5066071;28;20182;-83
2021/08/23 09:37:55;;;;;;;1.83;0.83;;;21.90;99.90;;;;;;5066705;28;20208;-83
2021/08/23 09:40:28;;;;;;;0.47;0.47;;;21.40;99.90;;;;;;5063238;28;20250;-82
2021/08/23 09:43:13;;;;;;;0.70;0.60;;;21.40;99.90;;;;;;5056535;28;20189;-81
2021/08/23 09:45:50;;;;;;;0.60;0.60;;;21.50;99.90;;;;;;5065756;28;20185;-83
2021/08/23 09:48:17;;;;;;;0.60;0.60;;;21.60;99.90;;;;;;5089378;28;20239;-83
2021/08/23 09:50:48;;;;;;;0.40;0.40;;;21.80;99.90;;;;;;5085982;28;20323;-82
2021/08/23 09:53:19;;;;;;;1.40;1.07;;;21.90;99.90;;;;;;5067906;28;20181;-83
2021/08/23 09:55:47;;;;;;;0.90;0.27;;;22.00;99.90;;;;;;5071985;28;20178;-82
2021/08/23 09:58:13;;;;;;;0.77;0.47;;;22.50;99.90;;;;;;5066093;28;20189;-83
2021/08/23 10:00:41;;;;;;;0.60;0.60;;;22.70;99.90;;;;;;5071821;28;20209;-82
2021/08/23 10:03:14;;;;;;;0.23;0.23;;;22.70;99.90;;;;;;5066101;28;20274;-83
2021/08/23 10:05:44;;;;;;;0.30;0.30;;;23.20;99.90;;;;;;5070688;28;20641;-82
2021/08/23 10:08:17;;;;;;;0.70;0.70;;;23.50;99.90;;;;;;5066836;28;20202;-83
2021/08/23 10:10:43;;;;;;;0.67;0.50;;;22.60;99.90;;;;;;5064065;28;20198;-83
2021/08/23 10:13:09;;;;;;;2.63;1.10;;;22.60;99.90;;;;;;5059274;28;20185;-83
2021/08/23 10:15:37;;;;;;;0.60;0.60;;;22.80;99.90;;;;;;5064425;28;20646;-81
2021/08/23 10:18:03;;;;;;;0.63;0.53;;;23.10;99.90;;;;;;5069130;28;20270;-82
2021/08/23 10:20:29;;;;;;;0.70;0.70;;;23.00;99.90;;;;;;5065686;28;20815;-82
2021/08/23 10:22:56;;;;;;;0.40;0.40;;;23.30;99.90;;;;;;5063453;28;20200;-84
2021/08/23 10:25:22;;;;;;;0.50;0.50;;;23.40;99.90;;;;;;5066603;28;20204;-82
2021/08/23 10:27:48;;;;;;;1.00;0.63;;;23.10;99.90;;;;;;5063618;28;20307;-81
2021/08/23 10:30:23;;;;;;;0.33;0.33;;;22.80;99.90;;;;;;5063136;28;20289;-82
2021/08/23 10:32:49;;;;;;;0.73;0.70;;;22.40;99.90;;;;;;5069973;28;20181;-81
2021/08/23 10:35:23;;;;;;;7.07;0.77;;;22.30;99.90;;;;;;5067518;28;20177;-82
2021/08/23 10:37:51;;;;;;;0.63;0.63;;;22.10;99.90;;;;;;5059634;28;20185;-82
2021/08/23 10:40:33;;;;;;;0.47;0.47;;;22.20;99.90;;;;;;5064356;28;20211;-82
2021/08/23 10:42:58;;;;;;;0.60;0.60;;;22.10;99.90;;;;;;5060138;28;20177;-82
2021/08/23 10:45:26;;;;;;;1.03;0.80;;;22.00;99.90;;;;;;5064781;28;20184;-82
2021/08/23 10:47:51;;;;;;;0.60;0.60;;;22.00;99.90;;;;;;5064443;28;20205;-82
2021/08/23 10:50:25;;;;;;;0.40;0.40;;;22.40;99.90;;;;;;5067699;28;20251;-82
2021/08/23 10:52:52;;;;;;;0.93;0.67;;;22.80;99.90;;;;;;5069729;28;20231;-82
2021/08/23 10:55:32;;;;;;;0.57;0.50;;;22.60;99.90;;;;;;5067416;28;20203;-82
2021/08/23 10:58:05;;;;;;;1.23;0.50;;;22.60;99.90;;;;;;5067368;28;20188;-82
2021/08/23 11:00:42;;;;;;;0.40;0.40;;;22.60;99.90;;;;;;5076580;28;20201;-82
2021/08/23 11:03:09;;;;;;;0.40;0.40;;;22.70;99.90;;;;;;5069223;28;20177;-82
2021/08/23 11:05:36;;;;;;;2.33;0.97;;;22.70;99.90;;;;;;5064642;28;20193;-81
2021/08/23 11:08:08;;;;;;;0.63;0.63;;;22.90;99.90;;;;;;5062135;28;20201;-81
2021/08/23 11:10:36;;;;;;;0.70;0.60;;;23.40;99.90;;;;;;5065747;28;20201;-81
2021/08/23 11:13:16;;;;;;;0.33;0.33;;;23.30;99.90;;;;;;5069345;28;20198;-86
2021/08/23 11:15:43;;;;;;;0.50;0.50;;;23.30;99.90;;;;;;5068668;28;20208;-83
2021/08/23 11:18:14;;;;;;;0.40;0.40;;;24.00;99.90;;;;;;5062930;28;20264;-84
2021/08/23 11:20:49;;;;;;;0.43;0.40;;;24.70;99.90;;;;;;5057478;28;20208;-83
2021/08/23 11:23:22;;;;;;;0.93;0.83;;;25.20;99.90;;;;;;5068821;28;20180;-84
2021/08/23 11:25:50;;;;;;;0.60;0.60;;;24.70;99.90;;;;;;5060320;28;20232;-83
2021/08/23 11:28:21;;;;;;;1.13;0.90;;;25.20;99.90;;;;;;5069466;28;20231;-83
2021/08/23 11:30:49;;;;;;;0.77;0.70;;;24.80;99.90;;;;;;5068810;28;20291;-83
2021/08/23 11:33:35;;;;;;;2.07;1.00;;;24.60;99.90;;;;;;5070672;28;20263;-83
2021/08/23 11:36:04;;;;;;;0.90;0.90;;;23.90;99.90;;;;;;5055835;28;20235;-83
2021/08/23 11:38:33;;;;;;;1.30;1.00;;;23.60;99.90;;;;;;5058908;28;20553;-84
2021/08/23 11:40:59;;;;;;;0.40;0.40;;;23.90;99.90;;;;;;5071133;28;20710;-84
2021/08/23 11:43:27;;;;;;;0.23;0.20;;;24.10;99.90;;;;;;5064633;28;20185;-83
2021/08/23 11:45:53;;;;;;;0.30;0.30;;;24.20;99.90;;;;;;5067855;28;20311;-84
2021/08/23 11:48:18;;;;;;;0.63;0.50;;;24.00;99.90;;;;;;5069302;28;20279;-83
2021/08/23 11:50:44;;;;;;;0.87;0.80;;;23.70;99.90;;;;;;5070577;28;20677;-84
2021/08/23 11:53:12;;;;;;;1.50;0.80;;;23.80;99.90;;;;;;5064196;28;20181;-83
2021/08/23 11:55:40;;;;;;;0.60;0.60;;;23.70;99.90;;;;;;5067192;28;20211;-83
2021/08/23 11:58:14;;;;;;;1.10;1.00;;;23.80;99.90;;;;;;5068626;28;20699;-83
2021/08/23 12:00:41;;;;;;;0.70;0.70;;;23.80;99.90;;;;;;5068886;28;20343;-83
2021/08/23 12:03:14;;;;;;;0.57;0.50;;;23.80;99.90;;;;;;5071481;28;20189;-82
2021/08/23 12:05:42;;;;;;;0.63;0.63;;;24.00;99.90;;;;;;5068048;28;20191;-83
2021/08/23 12:08:20;;;;;;;1.23;1.13;;;23.30;99.90;;;;;;5067382;28;20208;-83
2021/08/23 12:10:57;;;;;;;0.80;0.47;;;23.10;99.90;;;;;;5066719;28;20249;-83
2021/08/23 12:13:34;;;;;;;0.37;0.37;;;22.80;99.90;;;;;;5070868;28;20188;-83
2021/08/23 12:16:02;;;;;;;0.43;0.37;;;23.10;99.90;;;;;;5088135;28;20181;-83
2021/08/23 12:18:52;;;;;;;0.60;0.60;;;23.10;99.90;;;;;;5067869;28;20267;-83
2021/08/23 12:21:28;;;;;;;0.67;0.67;;;23.00;99.90;;;;;;5079514;28;20210;-82
2021/08/23 12:24:20;;;;;;;0.70;0.70;;;22.70;99.90;;;;;;5072335;28;20191;-83
2021/08/23 12:26:56;;;;;;;0.80;0.80;;;23.10;99.90;;;;;;5065802;28;20197;-83
2021/08/23 12:29:26;;;;;;;1.27;0.80;;;23.50;99.90;;;;;;5070243;28;20306;-82
2021/08/23 12:32:06;;;;;;;0.60;0.60;;;23.90;99.90;;;;;;5071910;28;20208;-83
2021/08/23 12:34:36;;;;;;;1.43;0.80;;;24.10;99.90;;;;;;5067510;28;20181;-83
2021/08/23 12:37:03;;;;;;;0.60;0.60;;;23.90;99.90;;;;;;5069895;28;20194;-83
2021/08/23 12:39:30;;;;;;;0.60;0.60;;;23.70;99.90;;;;;;5071438;28;20192;-84
2021/08/23 12:41:58;;;;;;;0.40;0.40;;;23.20;99.90;;;;;;5084672;28;20676;-86
2021/08/23 12:44:25;;;;;;;0.67;0.67;;;23.40;99.90;;;;;;5065974;28;20192;-85
2021/08/23 12:46:50;;;;;;;1.00;0.60;;;23.50;99.90;;;;;;5071470;28;20197;-82
2021/08/23 12:49:17;;;;;;;0.50;0.50;;;23.80;99.90;;;;;;5076160;28;20238;-82
2021/08/23 12:51:45;;;;;;;0.93;0.80;;;23.80;99.90;;;;;;5068550;28;20202;-83